Terminal Aerodrome Forecast
Issued by NWS Huntsville, AL

Current Version | Previous Version | Text Only | Print | Product List | Glossary On
Versions: 1 2 3 4 5 6 7 8 9 10 11 12 13 14 15 16 17 18 19 20 21 22 23 24 25 26 27 28 29 30 31 32 33 34 35 36 37 38 39
000
FTUS44 KHUN 040804 AAA
TAFHSV
TAF AMD
KHSV 040804Z 0408/0506 21008KT P6SM BKN010 OVC025
      TEMPO 0408/0412 BKN007 OVC020
     FM041200 22008KT 6SM -SHRA OVC020
      TEMPO 0415/0419 TSRA OVC020CB
     FM041900 24012KT P6SM -SHRA OVC040
     FM050100 17005KT P6SM OVC080=

USA.gov is the U.S. government's official web portal to all federal, state and local government web resources and services.